Etusivu
METAR-TAF:

METAR-TAF

Lentoasemat :

Enid, Oklahoma, Yhdysvallat

Leveyspiiri: 36-22-45N, Pituuspiiri: 097-47-28W, korkeus merenpinnasta: 356 m

Tämänhetkinen sää

Tämä raportti tehtiin 23 minuuttia sitten, kello 20.45 UTC
Tuuli 19 kn etelästä puuskistuen 23 kn:hen
Lämpötila 37°C
Kosteus 37%
Ilmanpaine 1012 hPa
Näkyvyys: 16.1 km
selkeää

METAR: KWDG 132045Z 18019G23KT 10SM SKC 37/20 A2988

Aika: 16:08 (21:08 UTC)


TAF: puuttuu

Säähavainnot ja -ennusteet yli 4000 lentoasemalta (METAR- ja TAF-raportit).

Käytössä olevat sääasemat on merkitty karttaan keltaisilla ja punaisilla pisteillä.

Aseta hiiri pisteen päälle nähdäksesi sääaseman nimen.

Klikkaa sitten nähdäksesi säähavainnot ja -ennusteet.

Kartan vaihtaminen: klikkaa mustalla rastilla varustettuja vihreitä pisteitä, niin voit zoomata sisään; viivalla varustettua vihreää pistettä, niin voit zoomata ulos tai vihreitä nuolia, niin pääset viereisille kartoille.


METAR-TAF: